Halifax, Virginia
Current Conditions -  °F | °C
As of 10:15 PM on Thursday 27 Nov 2014 (Local Time) from KW78 Reporting Station
Clear Clear  
Wind Chill: 27°   Ceiling: Unl
Heat Index: 35°   Visibility: 10mi
Dew Point: 22°   Wind: 12mph
Humidity: 60%   Direction: 300°WNW
Pressure: 30.24"   Gusts: 18mph
Location:  36.77°N, 78.93°W
Report Text: KW78 280315Z AUTO 30010G16KT 10SM CLR 02/M05 A3024 RMK AO1 T00171053
Loading
Personal Weather Stations






























Interactive Weather Map New forecast layout! Learn more

10-Day Weather Forecast

Advertisements
Track Severe Weather on mobile